This is the latest recevied weather packets stored in our database for station/object CT2IRJ-11. If no packets are shown the sender has not sent any weather packets the latest 10 day(s).
| Time | Temp. | Humidity | Pressure | Rain* | Wind** | Luminosity | Snow |
|---|---|---|---|---|---|---|---|
| 1777882410 | 15.56° C | 87% | 1016.6 hPa | 0 mm | - | 228 W/m² | - |
| 1777882109 | 15.56° C | 89% | 1016.6 hPa | 0 mm | - | 328 W/m² | - |
| 1777881810 | 15° C | 90% | 1016.6 hPa | 0 mm | - | 334 W/m² | - |
| 1777881510 | 13.89° C | 90% | 1016.6 hPa | 0 mm | - | 241 W/m² | - |
| 1777881209 | 13.89° C | 91% | 1016.6 hPa | 0 mm | - | 213 W/m² | - |
| 1777880909 | 13.89° C | 91% | 1016.6 hPa | 0 mm | - | 200 W/m² | - |
| 1777880609 | 13.33° C | 91% | 1016.6 hPa | 0 mm | - | 136 W/m² | - |
| 1777880309 | 12.78° C | 91% | 1016.6 hPa | 0 mm | - | 89 W/m² | - |
| 1777880010 | 13.33° C | 91% | 1016.3 hPa | 0 mm | - | 92 W/m² | - |
| 1777879710 | 13.33° C | 91% | 1016.3 hPa | 0 mm | - | 95 W/m² | - |
| 1777879412 | 13.33° C | 91% | 1016.3 hPa | 0 mm | - | 110 W/m² | - |
| 1777879110 | 13.33° C | 91% | 1015.9 hPa | 0 mm | - | 110 W/m² | - |
| 1777878809 | 12.78° C | 91% | 1015.9 hPa | 0 mm | - | 154 W/m² | - |
| 1777878510 | 12.22° C | 92% | 1015.9 hPa | 0 mm | - | 104 W/m² | - |
| 1777878209 | 12.22° C | 92% | 1015.9 hPa | 0 mm | - | 90 W/m² | - |
| 1777877910 | 11.67° C | 92% | 1015.9 hPa | 0 mm | - | 67 W/m² | - |
| 1777877613 | 11.67° C | 92% | 1015.6 hPa | 0 mm | - | 53 W/m² | - |
| 1777877312 | 11.67° C | 92% | 1015.6 hPa | 0 mm | - | 47 W/m² | - |
| 1777877010 | 11.67° C | 92% | 1015.6 hPa | 0 mm | - | 41 W/m² | - |
| 1777876710 | 11.67° C | 92% | 1015.6 hPa | 0 mm | - | 40 W/m² | - |
| 1777876409 | 11.67° C | 92% | 1015.9 hPa | 0 mm | - | 36 W/m² | - |
| 1777876109 | 11.67° C | 92% | 1015.9 hPa | 0 mm | - | 38 W/m² | - |
| 1777875809 | 11.67° C | 92% | 1015.6 hPa | 0 mm | - | 34 W/m² | - |
| 1777875509 | 11.11° C | 92% | 1015.6 hPa | 0 mm | - | 26 W/m² | - |
| 1777875209 | 11.11° C | 92% | 1015.6 hPa | 0 mm | - | 23 W/m² | - |
* Rain latest hour (hover to see other rain measurements)
** Current wind speed in m/s (hover to see current wind gust speed)